Time;durP1;ratioP1;P1;durP2;ratioP2;P2;SDS_P1;SDS_P2;PMS_P1;PMS_P2;Temp;Humidity;BMP_temperature;BMP_pressure;BME280_temperature;BME280_humidity;BME280_pressure;Samples;Min_cycle;Max_cycle;Signal;HPM_P1;HPM_P2
2023/08/06 00:00:38;;;;;;;2.55;1.15;;;22.10;91.90;;;;;;4937220;29;20035;-76
2023/08/06 00:03:03;;;;;;;3.28;1.50;;;22.10;92.00;;;;;;4949049;28;20369;-77
2023/08/06 00:05:29;;;;;;;1.38;1.20;;;22.10;91.90;;;;;;4951421;28;20394;-75
2023/08/06 00:07:55;;;;;;;3.20;1.13;;;22.10;91.90;;;;;;4937633;29;20020;-74
2023/08/06 00:10:20;;;;;;;3.55;1.40;;;22.10;91.90;;;;;;4939791;28;20027;-74
2023/08/06 00:12:46;;;;;;;2.13;1.27;;;22.10;91.80;;;;;;4937250;28;20474;-74
2023/08/06 00:15:12;;;;;;;2.08;1.30;;;22.10;91.90;;;;;;4935947;29;20032;-75
2023/08/06 00:17:38;;;;;;;3.17;1.10;;;22.10;91.80;;;;;;4935709;29;20067;-74
2023/08/06 00:20:06;;;;;;;2.60;1.10;;;22.10;91.80;;;;;;4938407;28;20513;-75
2023/08/06 00:22:36;;;;;;;1.88;1.10;;;22.10;91.80;;;;;;4926855;29;20459;-75
2023/08/06 00:25:04;;;;;;;2.22;0.90;;;22.10;91.90;;;;;;4941841;29;20027;-75
2023/08/06 00:27:30;;;;;;;3.45;1.27;;;22.00;91.90;;;;;;4949828;28;20027;-75
2023/08/06 00:29:55;;;;;;;1.70;1.20;;;22.00;91.90;;;;;;4938909;29;20031;-75
2023/08/06 00:32:21;;;;;;;3.67;1.40;;;22.00;91.90;;;;;;4947420;28;20046;-75
2023/08/06 00:34:49;;;;;;;1.85;1.20;;;22.00;91.90;;;;;;4936725;29;20119;-75
2023/08/06 00:37:18;;;;;;;1.55;1.00;;;22.00;91.90;;;;;;4944022;29;20090;-76
2023/08/06 00:39:44;;;;;;;1.45;1.20;;;22.00;91.90;;;;;;4937340;29;20095;-75
2023/08/06 00:42:12;;;;;;;1.30;1.10;;;22.00;92.00;;;;;;4948353;28;20023;-75
2023/08/06 00:44:38;;;;;;;1.50;1.10;;;22.00;92.00;;;;;;4954555;28;20028;-75
2023/08/06 00:47:06;;;;;;;7.13;1.33;;;22.00;92.00;;;;;;4936339;29;20028;-75
2023/08/06 00:49:32;;;;;;;1.55;1.15;;;22.00;92.00;;;;;;4937845;29;20136;-75
2023/08/06 00:51:59;;;;;;;1.50;1.20;;;22.00;92.00;;;;;;4951826;28;20114;-75
2023/08/06 00:54:26;;;;;;;1.42;0.93;;;22.00;92.00;;;;;;4955878;29;20074;-75
2023/08/06 00:56:52;;;;;;;2.65;1.42;;;22.00;92.00;;;;;;4951567;28;20027;-75
2023/08/06 00:59:19;;;;;;;1.55;1.08;;;22.00;92.10;;;;;;4936230;29;20028;-75
2023/08/06 01:01:45;;;;;;;2.67;1.40;;;22.00;92.00;;;;;;4925390;29;20046;-75
2023/08/06 01:04:12;;;;;;;1.75;1.40;;;22.00;92.10;;;;;;4929797;29;20495;-75
2023/08/06 01:07:03;;;;;;;2.40;1.13;;;22.00;92.10;;;;;;4938026;29;20035;-76
2023/08/06 01:09:49;;;;;;;1.65;1.17;;;22.00;92.10;;;;;;4936324;29;20027;-75
2023/08/06 01:12:23;;;;;;;1.55;1.20;;;22.10;92.20;;;;;;4951125;29;20110;-75
2023/08/06 01:15:04;;;;;;;1.23;0.88;;;22.10;92.30;;;;;;4955161;29;20028;-75
2023/08/06 01:17:31;;;;;;;1.77;1.17;;;22.10;92.40;;;;;;4945320;28;20118;-75
2023/08/06 01:19:56;;;;;;;1.52;1.13;;;22.10;92.40;;;;;;4939928;29;20039;-75
2023/08/06 01:22:22;;;;;;;2.05;1.60;;;22.10;92.50;;;;;;4936171;29;20032;-76
2023/08/06 01:24:50;;;;;;;4.00;1.50;;;22.10;92.50;;;;;;4918912;29;20023;-75
2023/08/06 01:27:25;;;;;;;1.73;1.40;;;22.10;92.70;;;;;;4937806;29;20113;-78
2023/08/06 01:30:16;;;;;;;2.10;1.55;;;22.20;92.60;;;;;;4954691;28;20031;-78
2023/08/06 01:32:45;;;;;;;2.00;1.50;;;22.10;92.80;;;;;;4945690;28;20097;-79
2023/08/06 01:35:13;;;;;;;1.58;1.33;;;22.10;92.50;;;;;;4938062;29;20032;-79
2023/08/06 01:37:40;;;;;;;4.30;1.90;;;22.10;92.50;;;;;;4945479;28;20055;-79
2023/08/06 01:40:10;;;;;;;2.53;1.70;;;22.10;92.50;;;;;;4953275;28;20050;-78
2023/08/06 01:42:36;;;;;;;3.35;1.50;;;22.20;92.60;;;;;;4945110;29;20103;-78
2023/08/06 01:45:02;;;;;;;2.10;1.40;;;22.20;92.70;;;;;;4951288;28;20102;-77
2023/08/06 01:47:28;;;;;;;2.00;1.38;;;22.10;92.70;;;;;;4952094;28;20098;-77
2023/08/06 01:49:53;;;;;;;2.22;1.60;;;22.10;92.70;;;;;;4954541;28;20081;-77
2023/08/06 01:52:19;;;;;;;1.95;1.55;;;22.20;92.80;;;;;;4942848;28;20075;-76
2023/08/06 01:54:45;;;;;;;3.78;1.70;;;22.10;92.70;;;;;;4935469;29;20397;-77
2023/08/06 01:57:10;;;;;;;1.80;1.42;;;22.10;92.90;;;;;;4950616;29;20397;-77
2023/08/06 01:59:36;;;;;;;2.05;1.52;;;22.10;92.80;;;;;;4954637;28;20024;-77
2023/08/06 02:02:02;;;;;;;3.47;1.70;;;22.10;92.90;;;;;;4948256;29;20056;-77
2023/08/06 02:04:27;;;;;;;3.78;1.50;;;22.10;93.00;;;;;;4936069;29;20035;-77
2023/08/06 02:06:53;;;;;;;3.42;1.55;;;22.10;93.00;;;;;;4935309;29;20103;-77
2023/08/06 02:09:19;;;;;;;2.08;1.60;;;22.10;93.00;;;;;;4952649;28;20035;-77
2023/08/06 02:11:44;;;;;;;4.32;1.90;;;22.10;93.00;;;;;;4941425;29;20035;-77
2023/08/06 02:14:10;;;;;;;3.53;1.85;;;22.10;93.10;;;;;;4935300;29;20027;-77
2023/08/06 02:16:36;;;;;;;2.85;1.63;;;22.00;93.00;;;;;;4937404;29;20028;-77
2023/08/06 02:19:01;;;;;;;2.67;1.70;;;22.00;93.10;;;;;;4951050;28;20537;-77
2023/08/06 02:21:27;;;;;;;2.60;1.88;;;22.10;93.10;;;;;;4952785;29;20039;-77
2023/08/06 02:23:53;;;;;;;2.65;1.73;;;22.10;93.20;;;;;;4918758;29;20047;-77
2023/08/06 02:26:19;;;;;;;2.00;1.60;;;22.10;93.20;;;;;;4935331;29;20476;-77
2023/08/06 02:28:45;;;;;;;2.90;1.90;;;22.10;93.20;;;;;;4946017;28;20453;-77
2023/08/06 02:31:10;;;;;;;1.98;1.60;;;22.10;93.10;;;;;;4953072;28;20066;-75
2023/08/06 02:33:36;;;;;;;2.47;1.90;;;22.10;93.10;;;;;;4953408;28;20039;-76
2023/08/06 02:36:05;;;;;;;2.10;1.77;;;22.10;93.10;;;;;;4953962;29;20149;-76
2023/08/06 02:38:32;;;;;;;3.17;2.42;;;22.00;93.10;;;;;;4944049;28;20031;-76
2023/08/06 02:40:58;;;;;;;10.27;2.85;;;22.00;93.10;;;;;;4935015;29;20036;-76
2023/08/06 02:43:23;;;;;;;4.65;2.35;;;22.00;93.30;;;;;;4934949;29;20027;-75
2023/08/06 02:45:49;;;;;;;2.22;1.88;;;22.00;93.30;;;;;;4918095;29;20024;-75
2023/08/06 02:48:15;;;;;;;3.60;1.90;;;22.00;93.20;;;;;;4934835;29;20466;-75
2023/08/06 02:50:41;;;;;;;3.05;1.98;;;22.00;93.20;;;;;;4954027;28;20458;-75
2023/08/06 02:53:09;;;;;;;4.45;2.22;;;22.00;93.30;;;;;;4944381;29;20063;-75
2023/08/06 02:55:36;;;;;;;3.35;2.03;;;22.00;93.30;;;;;;4938712;29;20043;-75
2023/08/06 02:58:03;;;;;;;4.25;2.10;;;22.00;93.30;;;;;;4938452;29;20036;-75
2023/08/06 03:00:29;;;;;;;2.47;1.95;;;22.00;93.40;;;;;;4940654;29;20024;-75
2023/08/06 03:08:32;;;;;;;2.30;1.98;;;22.00;93.40;;;;;;4973493;28;20125;-83
2023/08/06 03:10:59;;;;;;;2.35;1.77;;;22.00;93.30;;;;;;4976858;28;20043;-82
2023/08/06 03:13:34;;;;;;;3.35;1.70;;;22.00;93.30;;;;;;4958239;28;20070;-83
2023/08/06 03:16:00;;;;;;;5.13;1.90;;;22.00;93.40;;;;;;4959445;28;20400;-83
2023/08/06 03:18:26;;;;;;;2.05;1.70;;;22.00;93.30;;;;;;4958477;28;20030;-85
2023/08/06 03:20:52;;;;;;;3.55;2.03;;;22.00;93.40;;;;;;4959742;28;20027;-86
2023/08/06 03:23:18;;;;;;;3.25;2.08;;;22.00;93.40;;;;;;4975769;28;20033;-86
2023/08/06 03:25:46;;;;;;;3.78;2.67;;;22.00;93.50;;;;;;4978030;28;20042;-85
2023/08/06 03:28:12;;;;;;;2.70;1.92;;;22.00;93.40;;;;;;4977805;28;20034;-85
2023/08/06 03:30:38;;;;;;;2.03;1.83;;;22.00;93.30;;;;;;4977165;28;20492;-81
2023/08/06 03:33:03;;;;;;;2.65;2.20;;;22.00;93.30;;;;;;4975784;28;20027;-81
2023/08/06 03:35:29;;;;;;;2.60;2.08;;;22.00;93.30;;;;;;4978594;28;20479;-85
2023/08/06 03:37:55;;;;;;;2.90;2.28;;;22.00;93.30;;;;;;4972540;28;20358;-85
2023/08/06 03:40:21;;;;;;;3.20;2.40;;;22.00;93.20;;;;;;4977424;28;20026;-85
2023/08/06 03:42:47;;;;;;;4.07;2.53;;;22.00;93.20;;;;;;4976181;28;20345;-82
2023/08/06 03:45:13;;;;;;;3.45;2.60;;;22.00;93.10;;;;;;4957242;28;20074;-81
2023/08/06 03:47:44;;;;;;;2.95;2.50;;;22.00;93.10;;;;;;4958254;28;20097;-82
2023/08/06 03:50:10;;;;;;;4.30;2.63;;;22.00;93.20;;;;;;4959906;28;20440;-82
2023/08/06 03:52:35;;;;;;;3.40;2.42;;;22.00;93.30;;;;;;4976476;28;20085;-81
2023/08/06 03:55:01;;;;;;;6.20;2.13;;;22.00;93.30;;;;;;4975362;28;20057;-81
2023/08/06 03:57:27;;;;;;;3.30;2.55;;;22.00;93.30;;;;;;4985289;28;20035;-81
2023/08/06 03:59:53;;;;;;;3.65;2.83;;;22.00;93.40;;;;;;4976244;28;20384;-81
2023/08/06 04:02:18;;;;;;;2.97;2.40;;;22.00;93.40;;;;;;4978484;28;20031;-82
2023/08/06 04:04:44;;;;;;;2.97;2.38;;;22.00;93.40;;;;;;4973992;28;20027;-85
2023/08/06 04:07:10;;;;;;;2.80;2.28;;;22.00;93.80;;;;;;4970317;28;20039;-83
2023/08/06 04:09:54;;;;;;;4.03;2.05;;;22.00;93.70;;;;;;4972593;28;20035;-80
2023/08/06 04:12:20;;;;;;;4.22;2.15;;;22.00;93.80;;;;;;4976033;28;20078;-82
2023/08/06 04:14:46;;;;;;;3.00;2.38;;;22.00;93.80;;;;;;4940211;29;20031;-82
2023/08/06 04:17:12;;;;;;;3.53;2.03;;;21.90;93.90;;;;;;4945697;28;20033;-82
2023/08/06 04:19:38;;;;;;;3.10;2.20;;;22.00;94.20;;;;;;4975475;28;20130;-82
2023/08/06 04:22:04;;;;;;;4.25;2.58;;;21.90;94.20;;;;;;4974902;28;20528;-82
2023/08/06 04:24:30;;;;;;;3.35;2.33;;;22.00;94.40;;;;;;4976222;28;20106;-82
2023/08/06 04:26:55;;;;;;;3.33;2.58;;;21.90;94.40;;;;;;4975991;28;20058;-82
2023/08/06 04:29:21;;;;;;;2.55;2.28;;;21.90;94.40;;;;;;4958093;28;20041;-82
2023/08/06 04:31:47;;;;;;;4.82;2.60;;;21.80;94.40;;;;;;4972060;28;20027;-81
2023/08/06 04:34:13;;;;;;;2.22;1.90;;;21.80;94.60;;;;;;4956707;28;20039;-82
2023/08/06 04:36:38;;;;;;;4.22;2.97;;;21.80;94.70;;;;;;4942003;28;20046;-83
2023/08/06 04:39:04;;;;;;;5.07;2.80;;;21.70;94.70;;;;;;4975575;28;20393;-81
2023/08/06 04:41:30;;;;;;;3.30;1.85;;;21.60;94.80;;;;;;4973867;28;20102;-83
2023/08/06 04:43:57;;;;;;;2.83;1.65;;;21.60;94.90;;;;;;4975570;28;20030;-83
2023/08/06 04:46:22;;;;;;;2.35;2.15;;;21.50;95.10;;;;;;4975770;28;20440;-84
2023/08/06 04:48:48;;;;;;;3.25;2.20;;;21.50;95.00;;;;;;4976106;28;20062;-85
2023/08/06 04:51:14;;;;;;;3.03;2.40;;;21.60;95.10;;;;;;4958201;28;20454;-82
2023/08/06 04:53:41;;;;;;;2.40;2.10;;;21.60;95.20;;;;;;4974556;28;20039;-84
2023/08/06 04:56:06;;;;;;;2.13;1.92;;;21.60;95.10;;;;;;4958301;28;20042;-83
2023/08/06 04:58:32;;;;;;;2.90;1.80;;;21.70;95.10;;;;;;4965618;28;20131;-82
2023/08/06 05:00:58;;;;;;;3.10;2.20;;;21.70;95.10;;;;;;4974011;28;20121;-82
2023/08/06 05:03:23;;;;;;;4.22;2.38;;;21.70;95.00;;;;;;4971260;28;20031;-82
2023/08/06 05:05:50;;;;;;;2.53;2.00;;;21.70;95.00;;;;;;4990051;28;20503;-81
2023/08/06 05:08:16;;;;;;;2.33;2.10;;;21.80;95.10;;;;;;4974374;28;20043;-82
2023/08/06 05:10:44;;;;;;;2.90;2.45;;;21.80;95.00;;;;;;4967799;28;20083;-81
2023/08/06 05:13:10;;;;;;;2.17;1.98;;;21.80;95.10;;;;;;4969229;28;20033;-81
2023/08/06 05:15:35;;;;;;;3.78;1.88;;;21.80;95.10;;;;;;4957143;28;20027;-81
2023/08/06 05:18:01;;;;;;;4.78;3.20;;;21.80;95.10;;;;;;4950962;28;20081;-80
2023/08/06 05:20:27;;;;;;;4.13;1.83;;;21.80;95.10;;;;;;4972465;28;20061;-80
2023/08/06 05:22:52;;;;;;;4.32;2.80;;;21.70;95.20;;;;;;4964788;28;20034;-80
2023/08/06 05:25:18;;;;;;;5.65;2.58;;;21.80;95.40;;;;;;4957358;28;20049;-80
2023/08/06 05:27:44;;;;;;;3.75;2.40;;;21.80;95.40;;;;;;4974063;28;20034;-80
2023/08/06 05:30:10;;;;;;;2.45;2.08;;;21.80;95.40;;;;;;4968697;28;20031;-80
2023/08/06 05:32:36;;;;;;;3.03;2.30;;;21.80;95.30;;;;;;4964572;28;20081;-80
2023/08/06 05:35:02;;;;;;;3.13;2.50;;;21.80;95.30;;;;;;4973993;28;20035;-80
2023/08/06 05:37:28;;;;;;;3.47;2.58;;;21.90;95.40;;;;;;4956344;28;20477;-80
2023/08/06 05:39:54;;;;;;;3.85;2.50;;;21.90;95.40;;;;;;4974109;28;20035;-80
2023/08/06 05:42:19;;;;;;;2.45;2.13;;;21.90;95.40;;;;;;4973645;28;20025;-80
2023/08/06 05:44:45;;;;;;;3.75;2.40;;;22.00;95.40;;;;;;4974324;28;20453;-80
2023/08/06 05:47:11;;;;;;;4.75;2.55;;;22.00;95.30;;;;;;4974308;28;20030;-84
2023/08/06 05:49:37;;;;;;;3.55;2.72;;;22.00;95.20;;;;;;4959408;28;20037;-84
2023/08/06 05:52:06;;;;;;;2.88;2.15;;;22.00;95.30;;;;;;4982791;28;20026;-84
2023/08/06 05:54:31;;;;;;;3.15;2.10;;;22.00;95.20;;;;;;4986001;28;20496;-83
2023/08/06 05:56:57;;;;;;;2.22;1.70;;;22.00;95.40;;;;;;4960652;28;20031;-84
2023/08/06 05:59:23;;;;;;;3.17;2.08;;;22.10;95.40;;;;;;4977070;28;20031;-83
2023/08/06 06:01:49;;;;;;;2.67;2.03;;;22.00;95.30;;;;;;4974168;28;20030;-84
2023/08/06 06:04:14;;;;;;;2.97;2.25;;;22.10;95.20;;;;;;4983131;28;20037;-83
2023/08/06 06:06:41;;;;;;;1.98;1.80;;;22.10;95.20;;;;;;4964439;28;20043;-78
2023/08/06 06:09:07;;;;;;;4.07;1.80;;;22.10;95.30;;;;;;4968403;28;20432;-77
2023/08/06 06:11:36;;;;;;;3.25;1.92;;;22.20;95.60;;;;;;4966629;28;20097;-77
2023/08/06 06:14:06;;;;;;;2.10;1.85;;;22.30;95.30;;;;;;4949736;28;20378;-78
2023/08/06 06:16:35;;;;;;;3.95;1.63;;;22.30;95.10;;;;;;4940959;28;20055;-83
2023/08/06 06:19:02;;;;;;;1.88;1.35;;;22.30;95.10;;;;;;4940678;28;20039;-83
2023/08/06 06:21:28;;;;;;;2.72;1.80;;;22.40;94.80;;;;;;4955003;28;20047;-85
2023/08/06 06:23:58;;;;;;;3.08;1.88;;;22.40;94.70;;;;;;4956151;28;20121;-83
2023/08/06 06:26:24;;;;;;;1.90;1.52;;;22.50;94.80;;;;;;4975824;28;20034;-86
2023/08/06 06:28:50;;;;;;;2.83;1.70;;;22.50;94.50;;;;;;4970392;28;20035;-84
2023/08/06 06:31:21;;;;;;;4.80;2.30;;;22.50;94.40;;;;;;4969554;28;20046;-83
2023/08/06 06:33:46;;;;;;;1.77;1.67;;;22.50;94.40;;;;;;4975582;28;20034;-84
2023/08/06 06:36:24;;;;;;;3.08;1.85;;;22.50;93.80;;;;;;4954383;28;20393;-83
2023/08/06 06:38:49;;;;;;;2.42;1.63;;;22.50;94.00;;;;;;4980442;23;20035;-82
2023/08/06 06:41:15;;;;;;;2.20;1.63;;;22.60;94.00;;;;;;4979914;28;20536;-78
2023/08/06 06:43:41;;;;;;;2.25;1.83;;;22.60;93.90;;;;;;4966254;28;20080;-78
2023/08/06 06:46:07;;;;;;;2.20;1.88;;;22.60;93.80;;;;;;4981858;28;20109;-77
2023/08/06 06:48:33;;;;;;;4.35;1.75;;;22.70;93.90;;;;;;4987286;28;20107;-77
2023/08/06 06:50:59;;;;;;;2.83;1.90;;;22.70;93.90;;;;;;4986023;28;20113;-81
2023/08/06 06:53:28;;;;;;;3.25;2.38;;;22.70;93.70;;;;;;4984676;28;20022;-83
2023/08/06 06:56:02;;;;;;;6.10;2.47;;;22.80;93.80;;;;;;4980205;28;20096;-82
2023/08/06 06:58:28;;;;;;;2.95;2.08;;;22.70;93.70;;;;;;4965574;28;20418;-81
2023/08/06 07:00:53;;;;;;;2.78;1.63;;;22.80;93.90;;;;;;4976576;28;20157;-82
2023/08/06 07:03:20;;;;;;;1.98;1.70;;;22.80;94.00;;;;;;4983915;28;20023;-82
2023/08/06 07:05:46;;;;;;;2.55;1.38;;;22.90;93.80;;;;;;4986804;28;20431;-82
2023/08/06 07:08:12;;;;;;;2.20;1.60;;;23.00;93.70;;;;;;4976087;28;20150;-77
2023/08/06 07:10:38;;;;;;;1.75;1.58;;;23.10;93.50;;;;;;4973640;28;20053;-77
2023/08/06 07:13:04;;;;;;;2.75;2.03;;;23.10;93.20;;;;;;4969286;28;20030;-77
2023/08/06 07:15:29;;;;;;;4.43;2.20;;;23.10;93.30;;;;;;4985111;28;20038;-77
2023/08/06 07:17:55;;;;;;;3.72;1.90;;;23.20;93.20;;;;;;4967340;28;20107;-77
2023/08/06 07:20:21;;;;;;;2.97;1.90;;;23.20;93.10;;;;;;4976066;28;20041;-77
2023/08/06 07:22:46;;;;;;;2.50;2.30;;;23.30;93.10;;;;;;4987073;28;20018;-77
2023/08/06 07:25:12;;;;;;;2.42;2.00;;;23.30;92.90;;;;;;4965377;28;20157;-77
2023/08/06 07:27:39;;;;;;;2.83;2.03;;;23.40;93.10;;;;;;4987124;28;20089;-77
2023/08/06 07:30:05;;;;;;;2.78;2.00;;;23.40;93.00;;;;;;4959612;28;20121;-78
2023/08/06 07:32:31;;;;;;;2.95;1.63;;;23.40;93.00;;;;;;4976528;28;20058;-78
2023/08/06 07:35:00;;;;;;;4.20;2.10;;;23.50;93.10;;;;;;4984531;28;20034;-77
2023/08/06 07:37:29;;;;;;;3.53;2.20;;;23.60;92.90;;;;;;4978314;28;20062;-82
2023/08/06 07:39:55;;;;;;;5.07;2.00;;;23.60;92.90;;;;;;4975648;28;20089;-82
2023/08/06 07:42:21;;;;;;;2.65;1.80;;;23.70;92.90;;;;;;4984633;28;20453;-82
2023/08/06 07:45:06;;;;;;;6.20;4.50;;;23.70;92.90;;;;;;4984557;28;20037;-83
2023/08/06 07:47:32;;;;;;;3.67;2.65;;;23.60;92.30;;;;;;4981368;28;20026;-82
2023/08/06 07:49:58;;;;;;;2.80;2.50;;;23.50;92.60;;;;;;4965244;28;20037;-82
2023/08/06 07:52:23;;;;;;;2.50;2.25;;;23.50;92.80;;;;;;4981672;28;20526;-82
2023/08/06 07:54:49;;;;;;;2.85;2.28;;;23.50;92.80;;;;;;4979405;28;20026;-83
2023/08/06 07:57:15;;;;;;;2.33;1.70;;;23.60;92.80;;;;;;4988233;28;20030;-83
2023/08/06 07:59:41;;;;;;;2.47;1.50;;;23.70;92.70;;;;;;4958704;28;20043;-82
2023/08/06 08:02:06;;;;;;;2.83;2.08;;;23.80;92.60;;;;;;4976149;28;20500;-78
2023/08/06 08:04:32;;;;;;;2.85;1.50;;;23.90;92.30;;;;;;4988981;28;20053;-78
2023/08/06 08:06:58;;;;;;;1.88;1.52;;;24.00;92.60;;;;;;4984311;28;20045;-78
2023/08/06 08:09:23;;;;;;;2.40;1.60;;;24.10;92.70;;;;;;4983315;28;20042;-78
2023/08/06 08:11:50;;;;;;;2.20;1.80;;;24.20;92.40;;;;;;4978556;28;20039;-78
2023/08/06 08:14:16;;;;;;;3.30;1.63;;;24.30;92.20;;;;;;4962280;28;20113;-78
2023/08/06 08:16:42;;;;;;;2.78;1.60;;;24.40;91.90;;;;;;4974993;28;20038;-78
2023/08/06 08:19:09;;;;;;;2.33;1.55;;;24.40;91.80;;;;;;4976006;28;20038;-78
2023/08/06 08:21:35;;;;;;;1.92;1.48;;;24.40;91.60;;;;;;4964082;28;20053;-78
2023/08/06 08:24:01;;;;;;;4.57;1.67;;;24.40;91.40;;;;;;4988270;28;20469;-78
2023/08/06 08:26:29;;;;;;;2.20;1.50;;;24.40;91.60;;;;;;4982865;28;20038;-78
2023/08/06 08:28:56;;;;;;;3.08;1.75;;;24.50;91.60;;;;;;4990388;28;20033;-77
2023/08/06 08:31:22;;;;;;;2.42;1.52;;;24.60;91.20;;;;;;4984962;28;20563;-78
2023/08/06 08:33:47;;;;;;;2.95;1.90;;;24.60;91.10;;;;;;4980153;28;20110;-78
2023/08/06 08:36:13;;;;;;;3.80;1.58;;;24.60;90.60;;;;;;4976423;28;20044;-78
2023/08/06 08:38:39;;;;;;;3.03;1.30;;;24.70;91.00;;;;;;4974433;28;20031;-78
2023/08/06 08:41:05;;;;;;;1.55;1.20;;;24.80;91.30;;;;;;4971103;28;20047;-79
2023/08/06 08:43:31;;;;;;;2.58;1.73;;;24.80;90.90;;;;;;4972987;28;20068;-78
2023/08/06 08:46:01;;;;;;;2.42;1.55;;;24.90;90.90;;;;;;4974421;28;20027;-78
2023/08/06 08:48:27;;;;;;;1.47;1.07;;;25.00;90.80;;;;;;4977604;28;20030;-78
2023/08/06 08:50:55;;;;;;;2.42;1.38;;;25.00;90.80;;;;;;4958807;28;20062;-78
2023/08/06 08:53:21;;;;;;;2.58;0.95;;;25.20;90.90;;;;;;4975680;28;20031;-78
2023/08/06 08:55:49;;;;;;;1.90;1.20;;;25.30;90.80;;;;;;4957205;28;20030;-83
2023/08/06 08:58:15;;;;;;;0.93;0.82;;;25.40;90.60;;;;;;4977454;28;20031;-83
2023/08/06 09:00:49;;;;;;;1.17;1.08;;;25.40;90.40;;;;;;4959953;28;20598;-83
2023/08/06 09:03:17;;;;;;;1.58;1.00;;;25.40;90.20;;;;;;4956792;28;20452;-82
2023/08/06 09:05:49;;;;;;;1.65;0.80;;;25.50;90.10;;;;;;4973866;28;20080;-82
2023/08/06 09:08:19;;;;;;;2.10;1.05;;;25.60;90.20;;;;;;4976485;28;20034;-82
2023/08/06 09:10:48;;;;;;;1.40;0.98;;;25.70;90.00;;;;;;4975800;28;20026;-82
2023/08/06 09:13:13;;;;;;;0.95;0.80;;;25.70;89.50;;;;;;4974889;28;20038;-82
2023/08/06 09:15:39;;;;;;;4.15;1.17;;;25.80;89.50;;;;;;4970109;28;20011;-83
2023/08/06 09:18:11;;;;;;;2.65;1.20;;;25.90;89.00;;;;;;4977911;28;20468;-84
2023/08/06 09:20:39;;;;;;;3.42;1.33;;;26.00;87.90;;;;;;4978781;28;20038;-83
2023/08/06 09:23:10;;;;;;;2.90;0.90;;;26.00;87.80;;;;;;4980930;28;20027;-83
2023/08/06 09:25:42;;;;;;;1.35;1.00;;;26.10;88.10;;;;;;4953602;28;20038;-85
2023/08/06 09:28:08;;;;;;;3.78;1.30;;;26.20;87.70;;;;;;4955382;28;20492;-83
2023/08/06 09:30:38;;;;;;;2.33;1.00;;;26.20;86.70;;;;;;4972348;28;20031;-82
2023/08/06 09:33:14;;;;;;;3.60;0.90;;;26.30;86.50;;;;;;4975850;28;20034;-83
2023/08/06 09:35:40;;;;;;;3.63;1.38;;;26.40;85.90;;;;;;4955972;28;20039;-78
2023/08/06 09:38:10;;;;;;;1.92;0.68;;;26.50;86.40;;;;;;4970536;28;20390;-79
2023/08/06 09:40:37;;;;;;;2.00;0.85;;;26.60;86.20;;;;;;4977639;28;20497;-78
2023/08/06 09:43:03;;;;;;;4.72;1.10;;;26.80;85.00;;;;;;4974259;28;20347;-77
2023/08/06 09:45:36;;;;;;;0.68;0.60;;;26.90;84.50;;;;;;4975825;28;20110;-77
2023/08/06 09:48:07;;;;;;;3.42;1.02;;;27.10;83.70;;;;;;4950723;28;20030;-78
2023/08/06 09:50:36;;;;;;;1.67;0.60;;;27.10;83.10;;;;;;4980448;28;20026;-77
2023/08/06 09:53:03;;;;;;;2.17;0.50;;;27.20;83.10;;;;;;4973633;28;20055;-77
2023/08/06 09:55:29;;;;;;;2.72;0.55;;;27.30;82.60;;;;;;4973672;28;20458;-77
2023/08/06 09:57:55;;;;;;;1.55;0.60;;;27.40;82.00;;;;;;4979120;28;20039;-78
2023/08/06 10:00:22;;;;;;;1.77;0.32;;;27.50;81.00;;;;;;4971924;28;20039;-78
2023/08/06 10:02:51;;;;;;;0.50;0.50;;;27.60;80.50;;;;;;4980745;28;20026;-77
2023/08/06 10:05:18;;;;;;;1.55;0.40;;;27.70;79.60;;;;;;4970226;28;20046;-81
2023/08/06 10:07:44;;;;;;;1.90;0.60;;;27.90;79.60;;;;;;4973500;28;20026;-81
2023/08/06 10:10:10;;;;;;;1.02;0.40;;;28.00;79.20;;;;;;4967439;28;20030;-81
2023/08/06 10:12:40;;;;;;;0.57;0.20;;;28.20;77.50;;;;;;4971013;28;20048;-81
2023/08/06 10:15:10;;;;;;;;;;;28.30;77.50;;;;;;4967146;28;20042;-81
2023/08/06 10:17:37;;;;;;;4.00;0.40;;;28.40;75.00;;;;;;4973039;28;19910;-80
2023/08/06 10:20:07;;;;;;;0.57;0.30;;;28.40;76.60;;;;;;4956574;28;20465;-82
2023/08/06 10:22:33;;;;;;;;;;;28.50;76.40;;;;;;4979350;28;20041;-81
2023/08/06 10:25:04;;;;;;;1.05;0.50;;;28.60;75.90;;;;;;4982439;28;19909;-81
2023/08/06 10:27:39;;;;;;;3.35;0.45;;;28.70;75.90;;;;;;4981297;28;20018;-81
2023/08/06 10:30:24;;;;;;;3.30;0.80;;;28.70;74.00;;;;;;4972617;28;20122;-82
2023/08/06 10:32:52;;;;;;;1.92;0.28;;;28.70;74.00;;;;;;4973125;28;20484;-81
2023/08/06 10:35:49;;;;;;;1.27;0.40;;;28.80;74.40;;;;;;4973432;28;20027;-83
2023/08/06 10:38:31;;;;;;;15.73;4.18;;;29.00;73.20;;;;;;4961949;28;20046;-81
2023/08/06 10:40:57;;;;;;;2.78;0.85;;;29.10;74.20;;;;;;4962770;28;20038;-81
2023/08/06 10:43:32;;;;;;;0.30;0.25;;;29.10;73.40;;;;;;4971594;28;20034;-81
2023/08/06 10:46:27;;;;;;;0.60;0.30;;;29.30;73.40;;;;;;4972915;28;20034;-80
2023/08/06 10:48:52;;;;;;;0.40;0.30;;;29.40;72.70;;;;;;4961765;28;20053;-81
2023/08/06 10:51:18;;;;;;;2.00;0.55;;;29.50;72.90;;;;;;4978883;28;20642;-82
2023/08/06 10:53:46;;;;;;;3.20;0.68;;;29.70;72.50;;;;;;4976008;28;20038;-81
2023/08/06 10:56:15;;;;;;;2.80;0.50;;;29.80;72.80;;;;;;4982832;28;20064;-81
2023/08/06 10:58:41;;;;;;;1.08;0.65;;;29.90;72.30;;;;;;4975929;28;20039;-81
2023/08/06 11:01:07;;;;;;;2.97;0.60;;;30.00;71.90;;;;;;4977119;28;20022;-82
2023/08/06 11:03:34;;;;;;;1.58;0.57;;;30.00;71.60;;;;;;4975065;28;20342;-81
2023/08/06 11:06:00;;;;;;;0.40;0.40;;;30.10;71.90;;;;;;4976171;28;20035;-82
2023/08/06 11:08:33;;;;;;;0.73;0.35;;;30.20;71.80;;;;;;4976783;28;20428;-81
2023/08/06 11:11:19;;;;;;;0.57;0.30;;;30.40;71.20;;;;;;4972475;28;20101;-82
2023/08/06 11:13:49;;;;;;;1.38;0.28;;;30.40;70.30;;;;;;4970952;28;20451;-84
2023/08/06 11:16:17;;;;;;;2.42;0.30;;;30.50;70.20;;;;;;4973696;28;20031;-84
2023/08/06 11:18:43;;;;;;;0.95;0.20;;;30.60;70.00;;;;;;4966600;28;20501;-83
2023/08/06 11:21:09;;;;;;;1.10;0.40;;;30.70;69.60;;;;;;4971608;28;20034;-85
2023/08/06 11:23:35;;;;;;;1.38;0.30;;;30.90;70.20;;;;;;4973730;28;20478;-83
2023/08/06 11:26:01;;;;;;;2.53;0.57;;;31.10;70.20;;;;;;4955833;28;20401;-83
2023/08/06 11:28:27;;;;;;;1.38;0.40;;;31.20;69.40;;;;;;4973756;28;20054;-82
2023/08/06 11:30:55;;;;;;;3.03;0.55;;;31.40;68.30;;;;;;4966857;28;20058;-81
2023/08/06 11:33:31;;;;;;;0.77;0.30;;;31.40;68.50;;;;;;4973838;28;20015;-83
2023/08/06 11:35:58;;;;;;;0.70;0.20;;;31.50;67.80;;;;;;4976252;28;20528;-79
2023/08/06 11:38:28;;;;;;;0.82;0.25;;;31.70;67.50;;;;;;4967259;28;20023;-78
2023/08/06 11:40:54;;;;;;;1.42;0.30;;;32.00;67.10;;;;;;4974485;28;20047;-79
2023/08/06 11:43:22;;;;;;;2.42;0.30;;;32.20;66.90;;;;;;4979189;28;20030;-79
2023/08/06 11:45:53;;;;;;;0.73;0.25;;;32.40;65.60;;;;;;4974125;28;20432;-79
2023/08/06 11:48:19;;;;;;;1.92;0.30;;;32.60;65.80;;;;;;4987327;28;20030;-78
2023/08/06 11:50:45;;;;;;;1.50;0.20;;;32.90;65.90;;;;;;4974709;28;21669;-79
2023/08/06 11:53:15;;;;;;;0.30;0.20;;;33.20;64.60;;;;;;4978364;28;20041;-79
2023/08/06 11:55:41;;;;;;;0.95;0.20;;;33.50;63.90;;;;;;4979986;28;20114;-79
2023/08/06 11:58:07;;;;;;;0.38;0.20;;;33.70;63.10;;;;;;4975081;28;20509;-79
2023/08/06 12:00:33;;;;;;;2.92;0.32;;;33.90;62.70;;;;;;4978766;28;20138;-81
2023/08/06 12:02:59;;;;;;;1.58;0.22;;;34.00;62.40;;;;;;4956729;28;20035;-78
2023/08/06 12:05:30;;;;;;;1.27;0.30;;;34.10;61.60;;;;;;4972460;28;20027;-78
2023/08/06 12:08:00;;;;;;;0.30;0.30;;;34.10;60.50;;;;;;4972861;28;20023;-78
2023/08/06 12:10:30;;;;;;;0.57;0.30;;;34.10;61.50;;;;;;4969702;28;20038;-78
2023/08/06 12:12:56;;;;;;;1.20;0.20;;;34.30;61.80;;;;;;4971852;28;20023;-78
2023/08/06 12:15:23;;;;;;;0.45;0.20;;;34.50;61.70;;;;;;4954648;28;20177;-78
2023/08/06 12:17:49;;;;;;;0.55;0.20;;;34.60;61.40;;;;;;4970502;28;20070;-79
2023/08/06 12:20:15;;;;;;;0.60;0.25;;;34.70;60.50;;;;;;4972025;28;20440;-78
2023/08/06 12:22:41;;;;;;;0.75;0.25;;;34.80;60.40;;;;;;4969387;28;20038;-77
2023/08/06 12:25:11;;;;;;;0.73;0.40;;;34.90;60.70;;;;;;4966653;28;20027;-77
2023/08/06 12:27:39;;;;;;;1.17;0.30;;;35.00;59.40;;;;;;4971685;28;20027;-77
2023/08/06 12:30:05;;;;;;;1.55;0.25;;;35.10;58.20;;;;;;4969452;28;20065;-77
2023/08/06 12:32:31;;;;;;;0.70;0.20;;;35.00;58.90;;;;;;4969849;28;20117;-77
2023/08/06 12:34:57;;;;;;;1.48;0.17;;;35.00;59.70;;;;;;4984738;28;20030;-77
2023/08/06 12:37:25;;;;;;;0.40;0.20;;;35.00;59.30;;;;;;4981700;28;20029;-77
2023/08/06 12:39:51;;;;;;;0.10;0.10;;;35.00;58.60;;;;;;4972936;28;20133;-77
2023/08/06 12:42:16;;;;;;;2.08;0.28;;;35.00;58.80;;;;;;4970682;28;20115;-77
2023/08/06 12:44:42;;;;;;;0.60;0.20;;;35.00;58.50;;;;;;4972078;28;20484;-77
2023/08/06 12:47:08;;;;;;;0.20;0.20;;;35.10;58.70;;;;;;4969392;28;20114;-77
2023/08/06 12:49:34;;;;;;;0.20;0.10;;;35.20;57.70;;;;;;4971007;28;20042;-77
2023/08/06 12:52:00;;;;;;;0.20;0.15;;;35.10;58.20;;;;;;4971604;28;20030;-77
2023/08/06 12:54:27;;;;;;;0.28;0.10;;;35.10;58.00;;;;;;4971306;28;20496;-77